Time;durP1;ratioP1;P1;durP2;ratioP2;P2;SDS_P1;SDS_P2;PMS_P1;PMS_P2;Temp;Humidity;BMP_temperature;BMP_pressure;BME280_temperature;BME280_humidity;BME280_pressure;Samples;Min_cycle;Max_cycle;Signal;HPM_P1;HPM_P2
2023/07/22 00:02:18;;;;;;;0.10;0.10;;;;;;;10.98;100.00;96451.84;5026984;28;20534;-77
2023/07/22 00:05:04;;;;;;;0.10;0.10;;;;;;;11.04;100.00;96460.72;5017163;28;20037;-77
2023/07/22 00:07:52;;;;;;;0.10;0.10;;;;;;;11.12;100.00;96450.34;5032277;28;20045;-77
2023/07/22 00:10:42;;;;;;;0.10;0.10;;;;;;;11.07;100.00;96444.16;5032521;28;20063;-79
2023/07/22 00:13:29;;;;;;;0.10;0.10;;;;;;;10.93;100.00;96461.66;5031668;28;20503;-78
2023/07/22 00:16:14;;;;;;;0.10;0.10;;;;;;;10.89;100.00;96456.00;5024150;28;20041;-79
2023/07/22 00:19:00;;;;;;;0.10;0.10;;;;;;;10.97;100.00;96452.91;5031868;28;21410;-80
2023/07/22 00:21:47;;;;;;;0.00;0.00;;;;;;;11.07;100.00;96449.53;5030341;28;20029;-78
2023/07/22 00:24:33;;;;;;;0.10;0.10;;;;;;;10.97;100.00;96449.38;5031563;28;20041;-78
2023/07/22 00:27:19;;;;;;;0.10;0.10;;;;;;;10.90;100.00;96454.16;5032695;28;20045;-77
2023/07/22 00:30:06;;;;;;;0.10;0.10;;;;;;;10.81;100.00;96459.91;5034824;28;20665;-78
2023/07/22 00:32:52;;;;;;;0.10;0.10;;;;;;;10.72;100.00;96458.75;5030123;28;20041;-77
2023/07/22 00:35:38;;;;;;;0.00;0.00;;;;;;;10.64;100.00;96448.47;5018879;28;20051;-77
2023/07/22 00:38:25;;;;;;;0.10;0.10;;;;;;;10.38;100.00;96462.59;5030833;28;20048;-77
2023/07/22 00:41:11;;;;;;;0.10;0.10;;;;;;;10.41;100.00;96457.53;4994421;28;20069;-78
2023/07/22 00:43:57;;;;;;;0.10;0.10;;;;;;;10.45;100.00;96457.88;5014901;28;20041;-77
2023/07/22 00:46:43;;;;;;;0.10;0.10;;;;;;;10.46;100.00;96459.47;5032299;28;20041;-79
2023/07/22 00:49:29;;;;;;;0.10;0.10;;;;;;;10.40;100.00;96455.91;5032254;28;20072;-79
2023/07/22 00:52:16;;;;;;;0.10;0.10;;;;;;;10.19;100.00;96456.66;5017364;28;20148;-78
2023/07/22 00:55:02;;;;;;;0.08;0.08;;;;;;;10.16;100.00;96466.00;5041696;28;21381;-79
2023/07/22 00:57:48;;;;;;;0.10;0.10;;;;;;;10.11;100.00;96454.41;5040633;28;20036;-79
2023/07/22 01:00:34;;;;;;;0.00;0.00;;;;;;;10.13;100.00;96460.34;5052126;28;20491;-77
2023/07/22 01:03:20;;;;;;;0.10;0.10;;;;;;;10.09;100.00;96456.50;5048960;28;20047;-80
2023/07/22 01:06:07;;;;;;;0.10;0.10;;;;;;;9.94;100.00;96457.91;5051240;28;20044;-78
2023/07/22 01:08:53;;;;;;;0.10;0.10;;;;;;;9.94;100.00;96446.41;5038812;28;20064;-80
2023/07/22 01:11:38;;;;;;;0.03;0.03;;;;;;;9.83;100.00;96449.97;5044200;28;20102;-79
2023/07/22 01:14:26;;;;;;;0.10;0.10;;;;;;;9.74;100.00;96449.59;5038732;28;20094;-77
2023/07/22 01:17:13;;;;;;;0.08;0.08;;;;;;;9.73;100.00;96448.78;5049177;28;20107;-76
2023/07/22 01:19:59;;;;;;;0.10;0.10;;;;;;;9.80;100.00;96445.09;5033683;28;20213;-76
2023/07/22 01:22:53;;;;;;;0.10;0.10;;;;;;;9.83;100.00;96439.28;5048913;28;20040;-78
2023/07/22 01:25:39;;;;;;;0.10;0.10;;;;;;;9.83;100.00;96445.44;5051022;28;20036;-79
2023/07/22 01:28:25;;;;;;;0.10;0.10;;;;;;;9.74;100.00;96437.03;5045519;28;20044;-77
2023/07/22 01:31:11;;;;;;;0.10;0.10;;;;;;;9.76;100.00;96453.63;5035056;28;20056;-79
2023/07/22 01:33:58;;;;;;;0.10;0.10;;;;;;;9.74;100.00;96444.25;5049734;28;20041;-78
2023/07/22 01:36:47;;;;;;;0.10;0.10;;;;;;;9.74;100.00;96441.56;5050741;28;20036;-78
2023/07/22 01:39:33;;;;;;;0.00;0.00;;;;;;;9.63;100.00;96440.56;5036580;28;20040;-80
2023/07/22 01:42:19;;;;;;;0.13;0.13;;;;;;;9.63;100.00;96435.22;5040088;28;20044;-79
2023/07/22 01:45:07;;;;;;;0.10;0.10;;;;;;;9.62;100.00;96440.81;5047096;28;20060;-78
2023/07/22 01:47:53;;;;;;;0.00;0.00;;;;;;;9.61;100.00;96441.88;5035635;28;20050;-80
2023/07/22 01:50:39;;;;;;;0.00;0.00;;;;;;;9.47;100.00;96425.34;5051172;28;20076;-78
2023/07/22 01:53:25;;;;;;;0.10;0.10;;;;;;;9.59;100.00;96444.81;5051353;28;20055;-77
2023/07/22 01:56:13;;;;;;;0.13;0.13;;;;;;;9.58;100.00;96437.84;5041327;28;20040;-76
2023/07/22 01:58:59;;;;;;;0.10;0.10;;;;;;;9.54;100.00;96431.34;5038427;28;20059;-77
2023/07/22 02:01:45;;;;;;;0.10;0.10;;;;;;;9.47;100.00;96433.38;5048398;28;20044;-79
2023/07/22 02:04:31;;;;;;;0.08;0.08;;;;;;;9.47;100.00;96442.19;5051086;28;20544;-79
2023/07/22 02:07:17;;;;;;;0.10;0.10;;;;;;;9.54;100.00;96443.91;5045498;28;20049;-78
2023/07/22 02:10:03;;;;;;;0.10;0.10;;;;;;;9.56;100.00;96444.47;5038065;28;20039;-79
2023/07/22 02:12:49;;;;;;;0.10;0.10;;;;;;;9.49;100.00;96441.94;5035022;28;20040;-80
2023/07/22 02:15:35;;;;;;;0.10;0.10;;;;;;;9.44;100.00;96441.88;5049057;28;20048;-77
2023/07/22 02:18:21;;;;;;;0.10;0.10;;;;;;;9.37;100.00;96442.03;5034892;28;20049;-80
2023/07/22 02:21:07;;;;;;;0.10;0.10;;;;;;;9.31;100.00;96437.63;5032811;28;20127;-77
2023/07/22 02:23:52;;;;;;;0.10;0.10;;;;;;;9.29;100.00;96437.06;5050250;28;20044;-77
2023/07/22 02:26:38;;;;;;;0.10;0.10;;;;;;;9.31;100.00;96440.31;5050107;28;20526;-77
2023/07/22 02:29:24;;;;;;;0.10;0.10;;;;;;;9.30;100.00;96440.56;5052312;28;20076;-78
2023/07/22 02:32:10;;;;;;;0.08;0.08;;;;;;;9.26;100.00;96432.22;5043435;28;20452;-77
2023/07/22 02:34:56;;;;;;;0.10;0.10;;;;;;;9.14;100.00;96437.63;5049155;28;20051;-77
2023/07/22 02:37:42;;;;;;;0.10;0.10;;;;;;;9.04;100.00;96440.09;5048357;28;20077;-79
2023/07/22 02:40:27;;;;;;;0.10;0.10;;;;;;;9.07;100.00;96436.13;5053008;28;20126;-79
2023/07/22 02:43:15;;;;;;;0.10;0.10;;;;;;;9.05;100.00;96433.72;5039733;28;20165;-78
2023/07/22 02:46:03;;;;;;;0.10;0.10;;;;;;;9.08;100.00;96443.91;5043795;28;20128;-79
2023/07/22 02:48:49;;;;;;;0.10;0.10;;;;;;;9.07;100.00;96436.94;5052680;28;20115;-80
2023/07/22 02:51:35;;;;;;;0.10;0.10;;;;;;;8.93;100.00;96435.59;5047475;28;20052;-78
2023/07/22 02:54:21;;;;;;;0.10;0.10;;;;;;;8.87;100.00;96429.38;5047803;28;20053;-77
2023/07/22 02:57:07;;;;;;;0.10;0.10;;;;;;;8.95;100.00;96444.22;5038723;28;20051;-77
2023/07/22 02:59:53;;;;;;;0.10;0.10;;;;;;;8.96;100.00;96440.50;5051695;28;20032;-78
2023/07/22 03:02:40;;;;;;;0.10;0.10;;;;;;;8.76;100.00;96430.22;5015924;28;20051;-77
2023/07/22 03:05:30;;;;;;;0.10;0.10;;;;;;;8.72;100.00;96431.75;5036831;28;20044;-78
2023/07/22 03:08:17;;;;;;;0.10;0.10;;;;;;;8.72;100.00;96429.09;5040911;28;20150;-78
2023/07/22 03:11:03;;;;;;;0.10;0.10;;;;;;;8.83;100.00;96441.56;5035207;28;20049;-77
2023/07/22 03:13:49;;;;;;;0.10;0.10;;;;;;;8.87;100.00;96439.22;5035199;28;20075;-77
2023/07/22 03:16:35;;;;;;;0.10;0.10;;;;;;;8.84;100.00;96453.06;5027612;28;20044;-78
2023/07/22 03:19:21;;;;;;;0.10;0.10;;;;;;;8.86;100.00;96445.63;5036420;28;20070;-77
2023/07/22 03:22:07;;;;;;;0.10;0.10;;;;;;;8.84;100.00;96437.84;5034167;28;20098;-77
2023/07/22 03:24:53;;;;;;;0.13;0.13;;;;;;;8.89;100.00;96443.28;5016579;28;20045;-78
2023/07/22 03:27:39;;;;;;;0.10;0.10;;;;;;;8.83;100.00;96430.91;5033039;28;20053;-79
2023/07/22 03:30:25;;;;;;;0.10;0.10;;;;;;;8.82;100.00;96445.28;5022264;28;20045;-78
2023/07/22 03:33:11;;;;;;;0.10;0.10;;;;;;;8.82;100.00;96449.81;5037345;28;20060;-76
2023/07/22 03:35:57;;;;;;;0.10;0.10;;;;;;;8.79;100.00;96448.41;5037727;28;20100;-76
2023/07/22 03:38:43;;;;;;;0.10;0.10;;;;;;;8.70;100.00;96441.84;5033815;28;20676;-77
2023/07/22 03:41:29;;;;;;;0.20;0.20;;;;;;;8.65;100.00;96450.56;5038964;28;20114;-77
2023/07/22 03:44:15;;;;;;;0.10;0.10;;;;;;;8.59;100.00;96440.03;5037963;28;20076;-79
2023/07/22 03:47:00;;;;;;;0.10;0.10;;;;;;;8.60;100.00;96445.13;5035586;28;20084;-80
2023/07/22 03:49:46;;;;;;;0.10;0.10;;;;;;;8.65;100.00;96447.91;5034452;28;20049;-79
2023/07/22 03:52:32;;;;;;;0.10;0.10;;;;;;;8.61;100.00;96454.72;5035599;28;20056;-79
2023/07/22 03:55:19;;;;;;;0.10;0.10;;;;;;;8.65;100.00;96455.09;5032099;28;20579;-79
2023/07/22 03:58:07;;;;;;;0.10;0.10;;;;;;;8.73;100.00;96453.91;5027356;28;20220;-80
2023/07/22 04:00:53;;;;;;;0.10;0.10;;;;;;;8.70;100.00;96441.03;5017721;28;20495;-80
2023/07/22 04:03:39;;;;;;;0.10;0.10;;;;;;;8.85;100.00;96449.34;5021401;28;20040;-79
2023/07/22 04:06:25;;;;;;;0.10;0.10;;;;;;;8.90;100.00;96458.25;5019764;28;20041;-77
2023/07/22 04:09:11;;;;;;;0.10;0.10;;;;;;;8.97;100.00;96450.09;5038678;28;20110;-79
2023/07/22 04:11:56;;;;;;;0.10;0.10;;;;;;;9.04;100.00;96449.97;5038177;28;20506;-79
2023/07/22 04:14:42;;;;;;;0.10;0.10;;;;;;;9.10;100.00;96449.00;5040332;28;20036;-80
2023/07/22 04:17:28;;;;;;;0.10;0.10;;;;;;;9.07;100.00;96444.16;5021785;28;20102;-76
2023/07/22 04:20:14;;;;;;;0.10;0.10;;;;;;;9.11;100.00;96445.31;5020936;28;20041;-78
2023/07/22 04:23:00;;;;;;;0.10;0.10;;;;;;;9.14;100.00;96440.28;5038321;28;20053;-80
2023/07/22 04:25:48;;;;;;;0.10;0.10;;;;;;;9.23;100.00;96447.91;5036594;28;20072;-78
2023/07/22 04:28:34;;;;;;;0.10;0.10;;;;;;;9.24;100.00;96441.50;5034827;28;20079;-77
2023/07/22 04:31:20;;;;;;;0.10;0.10;;;;;;;9.29;100.00;96449.63;5036818;28;20056;-78
2023/07/22 04:34:06;;;;;;;0.10;0.10;;;;;;;9.34;100.00;96447.03;5035029;28;20060;-79
2023/07/22 04:36:52;;;;;;;0.10;0.10;;;;;;;9.40;100.00;96454.88;5035357;28;20040;-78
2023/07/22 04:39:38;;;;;;;0.10;0.10;;;;;;;9.49;100.00;96460.63;5034775;28;20040;-78
2023/07/22 04:42:25;;;;;;;0.10;0.10;;;;;;;9.52;100.00;96452.16;5038875;28;20099;-77
2023/07/22 04:45:11;;;;;;;0.10;0.10;;;;;;;9.59;100.00;96455.50;5024490;28;20041;-77
2023/07/22 04:47:57;;;;;;;0.10;0.10;;;;;;;9.66;100.00;96452.66;5028609;28;20113;-80
2023/07/22 04:50:44;;;;;;;0.10;0.10;;;;;;;9.73;100.00;96454.13;5036639;28;20163;-80
2023/07/22 04:53:30;;;;;;;0.10;0.10;;;;;;;9.81;100.00;96455.56;5034821;28;20061;-77
2023/07/22 04:56:16;;;;;;;0.10;0.10;;;;;;;9.84;100.00;96446.25;5037921;28;20550;-78
2023/07/22 04:59:03;;;;;;;0.10;0.10;;;;;;;10.01;100.00;96452.41;5034778;28;20086;-76
2023/07/22 05:01:48;;;;;;;0.00;0.00;;;;;;;10.12;100.00;96453.38;5034705;28;20044;-77
2023/07/22 05:04:35;;;;;;;0.10;0.10;;;;;;;10.26;100.00;96443.94;5035912;28;20067;-76
2023/07/22 05:07:21;;;;;;;0.10;0.10;;;;;;;10.46;100.00;96454.13;5036140;28;20072;-77
2023/07/22 05:10:11;;;;;;;0.10;0.10;;;;;;;10.54;100.00;96448.34;5034223;28;20059;-80
2023/07/22 05:12:57;;;;;;;0.10;0.10;;;;;;;10.61;100.00;96446.31;5034673;28;20044;-80
2023/07/22 05:15:43;;;;;;;0.03;0.03;;;;;;;10.70;100.00;96452.84;5027858;28;20041;-80
2023/07/22 05:18:29;;;;;;;0.20;0.10;;;;;;;10.80;100.00;96444.09;5032606;28;20040;-77
2023/07/22 05:21:15;;;;;;;0.10;0.10;;;;;;;10.93;100.00;96446.41;5037080;28;20048;-78
2023/07/22 05:24:01;;;;;;;0.10;0.10;;;;;;;11.06;100.00;96442.53;5034254;28;20118;-80
2023/07/22 05:26:47;;;;;;;0.10;0.10;;;;;;;11.16;100.00;96438.09;5034665;28;20064;-79
2023/07/22 05:29:32;;;;;;;0.10;0.10;;;;;;;11.24;100.00;96442.19;5023541;28;20052;-79
2023/07/22 05:32:18;;;;;;;0.10;0.10;;;;;;;11.39;100.00;96442.34;5019706;28;20479;-81
2023/07/22 05:35:05;;;;;;;0.10;0.10;;;;;;;11.44;100.00;96439.72;5037751;28;20038;-76
2023/07/22 05:37:51;;;;;;;0.10;0.10;;;;;;;11.59;100.00;96448.94;5034764;28;20114;-78
2023/07/22 05:40:36;;;;;;;0.20;0.20;;;;;;;11.65;100.00;96440.69;5039629;28;20695;-78
2023/07/22 05:43:22;;;;;;;0.10;0.10;;;;;;;11.73;100.00;96442.09;5035531;28;20045;-78
2023/07/22 05:46:11;;;;;;;0.10;0.10;;;;;;;11.84;100.00;96453.75;5036871;28;20052;-78
2023/07/22 05:48:57;;;;;;;0.10;0.10;;;;;;;11.92;100.00;96450.59;5035689;28;20427;-79
2023/07/22 05:51:43;;;;;;;0.10;0.10;;;;;;;12.02;100.00;96447.19;5035854;28;20044;-77
2023/07/22 05:54:28;;;;;;;0.10;0.10;;;;;;;12.17;100.00;96450.78;5030312;28;20054;-77
2023/07/22 05:57:14;;;;;;;0.10;0.10;;;;;;;12.25;100.00;96449.47;5015754;28;20049;-77
2023/07/22 06:00:00;;;;;;;0.10;0.10;;;;;;;12.35;100.00;96441.47;4995072;28;20590;-77
2023/07/22 06:02:46;;;;;;;0.10;0.10;;;;;;;12.43;100.00;96438.31;5014946;28;20037;-79
2023/07/22 06:05:32;;;;;;;0.10;0.10;;;;;;;12.58;100.00;96448.31;5018883;28;20038;-78
2023/07/22 06:08:17;;;;;;;0.15;0.15;;;;;;;12.68;100.00;96450.22;5016546;28;20405;-78
2023/07/22 06:11:03;;;;;;;0.00;0.00;;;;;;;12.81;100.00;96447.06;5002298;28;20045;-77
2023/07/22 06:13:49;;;;;;;0.10;0.10;;;;;;;12.91;100.00;96451.66;4990609;28;20069;-78
2023/07/22 06:16:35;;;;;;;0.10;0.10;;;;;;;12.98;100.00;96442.28;5016608;28;20038;-76
2023/07/22 06:19:21;;;;;;;0.10;0.10;;;;;;;13.04;100.00;96448.50;5018020;28;20178;-77
2023/07/22 06:22:07;;;;;;;0.10;0.10;;;;;;;13.14;100.00;96450.41;5023772;28;20049;-77
2023/07/22 06:24:52;;;;;;;0.10;0.10;;;;;;;13.30;100.00;96460.13;5020929;28;20063;-78
2023/07/22 06:27:38;;;;;;;0.10;0.10;;;;;;;13.35;100.00;96452.09;5021050;28;20114;-77
2023/07/22 06:30:27;;;;;;;0.10;0.10;;;;;;;13.48;100.00;96453.47;5021130;28;20114;-78
2023/07/22 06:33:13;;;;;;;0.10;0.10;;;;;;;13.63;100.00;96453.50;5021640;28;20044;-79
2023/07/22 06:35:59;;;;;;;0.10;0.10;;;;;;;13.74;100.00;96459.69;5023829;28;20069;-78
2023/07/22 06:38:45;;;;;;;0.10;0.10;;;;;;;13.83;100.00;96458.06;5022594;28;20049;-77
2023/07/22 06:41:30;;;;;;;0.05;0.05;;;;;;;13.83;100.00;96456.19;5005328;28;20601;-78
2023/07/22 06:44:16;;;;;;;0.10;0.10;;;;;;;13.80;100.00;96445.16;5019275;28;20043;-78
2023/07/22 06:47:02;;;;;;;0.10;0.10;;;;;;;13.95;100.00;96461.31;5016094;28;20042;-78
2023/07/22 06:49:48;;;;;;;0.10;0.10;;;;;;;14.11;100.00;96462.09;5006923;28;20073;-78
2023/07/22 06:52:36;;;;;;;0.10;0.10;;;;;;;14.26;100.00;96462.09;5017676;28;20918;-77
2023/07/22 06:55:22;;;;;;;0.17;0.17;;;;;;;14.35;100.00;96470.41;5035274;28;20096;-78
2023/07/22 06:58:08;;;;;;;0.10;0.10;;;;;;;14.36;100.00;96462.06;5039129;28;20598;-76
2023/07/22 07:00:55;;;;;;;0.20;0.20;;;;;;;14.38;100.00;96462.59;5038617;28;20041;-79
2023/07/22 07:03:41;;;;;;;0.10;0.10;;;;;;;14.40;100.00;96465.84;5029215;28;20037;-78
2023/07/22 07:06:29;;;;;;;0.10;0.10;;;;;;;14.53;100.00;96463.66;5035819;28;20052;-78
2023/07/22 07:09:15;;;;;;;0.10;0.10;;;;;;;14.63;100.00;96463.63;5013435;28;20044;-77
2023/07/22 07:12:01;;;;;;;0.10;0.10;;;;;;;14.65;100.00;96467.69;5036719;28;20043;-78
2023/07/22 07:14:51;;;;;;;0.10;0.10;;;;;;;14.76;100.00;96468.44;5032745;28;20416;-77
2023/07/22 07:17:37;;;;;;;0.10;0.10;;;;;;;14.85;100.00;96468.69;5039647;28;20065;-78
2023/07/22 07:20:23;;;;;;;0.10;0.10;;;;;;;15.01;100.00;96468.34;5037595;28;20037;-77
2023/07/22 07:23:08;;;;;;;0.10;0.10;;;;;;;15.14;100.00;96471.53;5038018;28;20049;-78
2023/07/22 07:25:54;;;;;;;0.10;0.10;;;;;;;15.22;100.00;96469.06;5037917;28;20143;-78
2023/07/22 07:28:40;;;;;;;0.10;0.10;;;;;;;15.30;100.00;96464.97;5036286;28;20044;-78
2023/07/22 07:31:27;;;;;;;0.10;0.10;;;;;;;15.40;100.00;96464.09;5039349;28;20044;-77
2023/07/22 07:34:13;;;;;;;0.10;0.10;;;;;;;15.55;100.00;96459.44;5026891;28;20044;-77
2023/07/22 07:36:58;;;;;;;0.10;0.10;;;;;;;15.60;100.00;96464.78;5037317;28;20044;-78
2023/07/22 07:39:47;;;;;;;0.10;0.10;;;;;;;15.67;100.00;96461.81;5037967;28;20813;-79
2023/07/22 07:42:33;;;;;;;0.10;0.10;;;;;;;15.73;100.00;96465.28;5038642;28;20048;-77
2023/07/22 07:45:20;;;;;;;0.10;0.10;;;;;;;15.71;100.00;96464.75;5040829;28;20554;-78
2023/07/22 07:48:06;;;;;;;0.10;0.10;;;;;;;15.58;100.00;96463.47;5039863;28;20798;-77
2023/07/22 07:50:51;;;;;;;0.10;0.10;;;;;;;15.47;100.00;96476.19;5037261;28;20048;-78
2023/07/22 07:53:37;;;;;;;0.10;0.10;;;;;;;15.55;100.00;96470.22;5036439;28;20037;-78
2023/07/22 07:56:23;;;;;;;0.10;0.10;;;;;;;15.75;100.00;96476.59;5037612;28;20039;-77
2023/07/22 07:59:09;;;;;;;0.10;0.10;;;;;;;15.82;100.00;96475.19;5018034;28;20044;-78
2023/07/22 08:01:55;;;;;;;0.10;0.10;;;;;;;15.98;100.00;96473.19;5037243;28;20360;-79
2023/07/22 08:04:41;;;;;;;0.10;0.10;;;;;;;16.10;100.00;96467.41;5024041;28;20501;-79
2023/07/22 08:07:27;;;;;;;0.10;0.10;;;;;;;16.03;100.00;96472.31;5036446;28;20095;-76
2023/07/22 08:10:13;;;;;;;0.10;0.10;;;;;;;16.21;100.00;96471.66;5039481;28;20048;-77
2023/07/22 08:12:59;;;;;;;0.10;0.10;;;;;;;16.38;100.00;96471.22;5035751;28;20040;-77
2023/07/22 08:15:45;;;;;;;0.03;0.03;;;;;;;16.28;100.00;96458.63;5020952;28;20048;-77
2023/07/22 08:18:31;;;;;;;0.10;0.10;;;;;;;16.20;100.00;96475.44;5038100;28;20119;-78
2023/07/22 08:21:17;;;;;;;0.10;0.10;;;;;;;15.99;100.00;96455.91;5037842;28;20832;-77
2023/07/22 08:24:04;;;;;;;0.00;0.00;;;;;;;16.27;100.00;96470.53;5038088;28;20617;-78
2023/07/22 08:26:49;;;;;;;0.10;0.10;;;;;;;16.57;100.00;96473.97;5011087;28;20065;-77
2023/07/22 08:29:36;;;;;;;0.10;0.10;;;;;;;16.54;100.00;96461.06;5041244;28;20603;-77
2023/07/22 08:32:22;;;;;;;0.10;0.10;;;;;;;16.76;100.00;96468.69;5035431;28;20555;-77
2023/07/22 08:35:08;;;;;;;0.10;0.10;;;;;;;16.94;100.00;96460.63;5038559;28;20486;-77
2023/07/22 08:37:54;;;;;;;0.10;0.10;;;;;;;16.71;100.00;96459.53;5035943;28;20074;-76
2023/07/22 08:40:40;;;;;;;0.10;0.10;;;;;;;16.90;100.00;96464.22;5034948;28;20084;-77
2023/07/22 08:43:29;;;;;;;0.10;0.10;;;;;;;16.77;100.00;96462.19;5037533;28;20149;-76
2023/07/22 08:46:15;;;;;;;0.10;0.10;;;;;;;17.05;100.00;96461.34;5035832;28;20033;-77
2023/07/22 08:49:03;;;;;;;0.10;0.10;;;;;;;17.37;100.00;96470.66;5035557;28;20912;-77
2023/07/22 08:51:50;;;;;;;0.10;0.10;;;;;;;17.23;100.00;96470.56;5031824;28;20081;-78
2023/07/22 08:54:36;;;;;;;0.10;0.10;;;;;;;16.98;100.00;96475.19;5024363;28;20056;-77
2023/07/22 08:57:24;;;;;;;0.10;0.10;;;;;;;17.38;100.00;96467.66;4999457;28;20036;-78
2023/07/22 09:00:11;;;;;;;0.10;0.10;;;;;;;17.50;100.00;96462.59;5035316;28;20800;-78
2023/07/22 09:02:58;;;;;;;0.10;0.10;;;;;;;17.74;96.87;96469.88;5034650;28;20637;-77
2023/07/22 09:05:45;;;;;;;0.10;0.10;;;;;;;17.93;98.48;96461.75;5039773;28;20044;-79
2023/07/22 09:08:31;;;;;;;0.10;0.10;;;;;;;18.16;100.00;96460.00;5039315;28;20072;-78
2023/07/22 09:11:19;;;;;;;0.20;0.20;;;;;;;17.85;98.44;96468.63;5039640;28;20789;-77
2023/07/22 09:14:06;;;;;;;0.10;0.10;;;;;;;17.76;95.24;96457.66;5035265;28;20057;-77
2023/07/22 09:16:51;;;;;;;0.10;0.10;;;;;;;17.58;94.45;96452.22;5036784;28;20044;-80
2023/07/22 09:19:37;;;;;;;0.10;0.10;;;;;;;17.89;92.13;96463.41;5020406;28;20666;-78
2023/07/22 09:22:29;;;;;;;0.10;0.10;;;;;;;17.78;88.24;96452.75;5010982;28;20040;-78
2023/07/22 09:25:21;;;;;;;0.10;0.10;;;;;;;18.31;91.50;96457.03;5037245;28;20346;-79
2023/07/22 09:28:07;;;;;;;0.10;0.10;;;;;;;18.52;88.51;96446.63;5035068;28;20029;-78
2023/07/22 09:31:02;;;;;;;0.10;0.10;;;;;;;18.62;81.48;96452.69;5034787;28;20137;-77
2023/07/22 09:33:53;;;;;;;0.10;0.10;;;;;;;19.08;76.50;96451.81;5035590;28;20098;-77
2023/07/22 09:36:52;;;;;;;0.20;0.20;;;;;;;19.35;75.85;96439.31;5014059;28;20041;-77
2023/07/22 09:39:37;;;;;;;0.10;0.10;;;;;;;19.84;74.92;96443.09;5025049;28;20048;-76
2023/07/22 09:42:25;;;;;;;0.10;0.10;;;;;;;19.62;74.31;96435.75;5034939;28;20033;-77
2023/07/22 09:45:11;;;;;;;0.10;0.10;;;;;;;19.99;74.85;96445.44;5034562;28;20392;-79
2023/07/22 09:47:58;;;;;;;0.10;0.10;;;;;;;19.83;73.49;96439.59;5035583;28;20292;-77
2023/07/22 09:50:44;;;;;;;0.10;0.10;;;;;;;19.59;65.90;96430.94;5028382;28;20069;-78
2023/07/22 09:53:29;;;;;;;0.10;0.10;;;;;;;19.76;74.23;96442.72;5035748;28;20045;-77
2023/07/22 09:56:15;;;;;;;0.10;0.10;;;;;;;20.20;63.56;96432.16;5036353;28;20037;-77
2023/07/22 09:59:05;;;;;;;0.10;0.10;;;;;;;20.19;64.56;96436.81;5035225;28;20036;-79
2023/07/22 10:01:52;;;;;;;0.10;0.10;;;;;;;20.39;66.76;96429.22;5035060;28;20040;-79
2023/07/22 10:04:41;;;;;;;0.10;0.10;;;;;;;20.53;66.84;96435.41;5034622;28;20530;-78
2023/07/22 10:07:27;;;;;;;0.20;0.20;;;;;;;20.35;56.37;96437.22;5028653;28;20092;-79
2023/07/22 10:10:16;;;;;;;0.10;0.10;;;;;;;20.06;56.62;96434.97;5036234;28;20703;-76
2023/07/22 10:13:03;;;;;;;0.10;0.10;;;;;;;20.24;55.98;96431.25;5034480;28;20523;-77
2023/07/22 10:15:49;;;;;;;0.10;0.10;;;;;;;20.92;52.06;96436.53;5034859;28;20048;-76
2023/07/22 10:18:37;;;;;;;0.10;0.10;;;;;;;21.25;65.75;96418.72;5034569;28;20041;-77
2023/07/22 10:21:25;;;;;;;0.10;0.10;;;;;;;21.80;66.68;96423.56;5006081;28;20445;-77
2023/07/22 10:24:11;;;;;;;0.10;0.10;;;;;;;20.89;55.46;96429.81;5036549;28;20427;-78
2023/07/22 10:26:57;;;;;;;0.10;0.10;;;;;;;21.02;63.40;96414.50;5021211;28;20068;-78
2023/07/22 10:29:45;;;;;;;0.10;0.10;;;;;;;21.06;57.16;96420.91;5036696;28;20052;-78
2023/07/22 10:32:33;;;;;;;0.10;0.10;;;;;;;21.35;63.08;96420.34;5019624;28;20052;-78
2023/07/22 10:35:25;;;;;;;0.10;0.10;;;;;;;21.94;53.70;96424.22;5036957;28;20734;-78
2023/07/22 10:38:14;;;;;;;0.10;0.10;;;;;;;22.13;52.70;96420.34;5034163;28;20387;-78
2023/07/22 10:41:00;;;;;;;0.10;0.10;;;;;;;22.06;56.34;96414.56;5036897;28;20033;-77
2023/07/22 10:43:58;;;;;;;0.10;0.10;;;;;;;22.31;56.08;96413.75;5032443;28;20051;-78
2023/07/22 10:46:57;;;;;;;0.10;0.10;;;;;;;22.88;56.20;96423.50;5025573;28;20037;-76
2023/07/22 10:49:48;;;;;;;0.10;0.10;;;;;;;23.09;53.66;96410.72;5034044;28;20388;-77
2023/07/22 10:52:42;;;;;;;;;;;;;;;23.08;44.76;96418.09;5034004;28;20041;-76
2023/07/22 10:55:28;;;;;;;0.10;0.10;;;;;;;23.26;47.89;96407.88;5036387;28;19974;-77
2023/07/22 10:58:13;;;;;;;0.10;0.10;;;;;;;22.60;54.27;96406.75;5035388;28;20048;-77
2023/07/22 11:01:27;;;;;;;0.10;0.10;;;;;;;22.27;53.33;96407.34;5032433;28;20046;-78
2023/07/22 11:04:32;;;;;;;0.10;0.10;;;;;;;22.58;50.56;96409.81;5036727;28;20675;-78
2023/07/22 11:07:43;;;;;;;0.13;0.13;;;;;;;22.18;57.21;96401.94;5028008;28;20495;-79
2023/07/22 11:10:29;;;;;;;0.10;0.10;;;;;;;22.58;56.01;96409.81;5020514;28;20049;-78
2023/07/22 11:13:17;;;;;;;0.03;0.03;;;;;;;22.83;51.49;96413.56;5041162;28;20391;-77
2023/07/22 11:16:03;;;;;;;0.00;0.00;;;;;;;23.45;49.25;96391.06;5031068;28;20580;-78
2023/07/22 11:18:49;;;;;;;0.10;0.10;;;;;;;23.23;48.95;96402.28;5022032;28;20037;-78
2023/07/22 11:21:36;;;;;;;0.10;0.10;;;;;;;23.86;47.65;96382.06;5040115;28;20042;-77
2023/07/22 11:24:23;;;;;;;0.20;0.20;;;;;;;23.12;42.84;96395.63;5021950;28;20482;-78
2023/07/22 11:27:09;;;;;;;0.10;0.10;;;;;;;23.41;41.07;96390.13;5037517;28;20580;-78
2023/07/22 11:29:59;;;;;;;0.10;0.10;;;;;;;23.53;41.53;96376.53;5031323;28;20770;-77
2023/07/22 11:32:45;;;;;;;0.10;0.10;;;;;;;24.94;37.92;96383.78;5038159;28;20098;-77
2023/07/22 11:35:31;;;;;;;0.20;0.20;;;;;;;26.28;33.28;96375.19;5023739;28;20227;-78
2023/07/22 11:38:19;;;;;;;0.17;0.17;;;;;;;28.15;29.79;96367.31;5040364;28;20162;-77
2023/07/22 11:41:05;;;;;;;0.10;0.10;;;;;;;27.79;30.16;96366.66;5037726;28;20481;-78
2023/07/22 11:43:51;;;;;;;0.10;0.10;;;;;;;26.83;33.18;96370.72;5037667;28;20117;-78
2023/07/22 11:47:03;;;;;;;0.20;0.20;;;;;;;27.86;30.41;96365.97;5034955;28;20037;-79
2023/07/22 11:49:49;;;;;;;0.10;0.10;;;;;;;30.02;26.33;96353.28;5037990;28;20055;-78
2023/07/22 11:52:36;;;;;;;0.10;0.10;;;;;;;30.38;26.00;96360.81;5020903;28;20102;-78
2023/07/22 11:55:24;;;;;;;0.20;0.20;;;;;;;31.58;24.90;96362.13;5038245;28;20056;-78
2023/07/22 11:58:09;;;;;;;0.10;0.10;;;;;;;29.02;26.68;96358.25;5036649;28;20037;-78
2023/07/22 12:01:09;;;;;;;0.20;0.20;;;;;;;28.88;25.95;96362.72;5019100;28;20052;-79
2023/07/22 12:03:56;;;;;;;0.10;0.10;;;;;;;29.50;26.73;96349.53;5035405;28;20041;-79
2023/07/22 12:06:42;;;;;;;0.10;0.10;;;;;;;28.63;26.24;96354.84;5035796;28;20037;-80
2023/07/22 12:09:28;;;;;;;0.10;0.10;;;;;;;29.76;26.70;96363.25;5038865;28;20111;-77
2023/07/22 12:12:14;;;;;;;0.10;0.10;;;;;;;27.83;28.92;96356.50;5039092;28;20072;-78
2023/07/22 12:15:14;;;;;;;0.10;0.10;;;;;;;28.75;26.58;96357.41;5037913;28;20037;-77
2023/07/22 12:18:00;;;;;;;0.10;0.10;;;;;;;30.01;26.21;96366.28;5038040;28;20029;-78
2023/07/22 12:20:46;;;;;;;0.10;0.10;;;;;;;31.80;23.20;96358.31;5036862;28;20044;-79
2023/07/22 12:23:32;;;;;;;0.10;0.10;;;;;;;31.38;23.56;96363.63;5037289;28;20036;-78
2023/07/22 12:26:18;;;;;;;0.10;0.10;;;;;;;29.74;24.91;96345.50;5035973;28;20111;-79
2023/07/22 12:29:04;;;;;;;0.10;0.10;;;;;;;30.71;24.89;96348.91;5035796;28;20386;-79
2023/07/22 12:31:50;;;;;;;0.03;0.03;;;;;;;30.83;24.30;96350.59;5038872;28;20124;-78
2023/07/22 12:34:36;;;;;;;0.10;0.10;;;;;;;30.43;24.72;96341.16;5039341;28;20550;-79
2023/07/22 12:37:22;;;;;;;0.10;0.10;;;;;;;29.29;26.20;96341.72;5036897;28;20045;-78
2023/07/22 12:40:08;;;;;;;0.08;0.08;;;;;;;27.39;29.49;96359.50;5037810;28;20092;-79
2023/07/22 12:42:54;;;;;;;0.10;0.10;;;;;;;29.49;26.85;96345.91;5037427;28;20048;-77
2023/07/22 12:45:40;;;;;;;0.10;0.10;;;;;;;29.77;25.84;96336.47;5038965;28;20045;-77
2023/07/22 12:48:26;;;;;;;0.00;0.00;;;;;;;27.36;29.48;96351.97;5034518;28;20218;-77
2023/07/22 12:51:13;;;;;;;0.10;0.10;;;;;;;27.35;28.94;96353.13;5023378;28;20049;-77
2023/07/22 12:53:58;;;;;;;0.10;0.10;;;;;;;29.63;26.56;96340.63;5020560;28;20595;-77
2023/07/22 12:56:45;;;;;;;0.10;0.10;;;;;;;29.09;26.63;96339.06;5035974;28;20154;-77
2023/07/22 12:59:31;;;;;;;0.20;0.20;;;;;;;29.43;26.13;96341.91;5037853;28;20151;-77
2023/07/22 13:02:17;;;;;;;0.08;0.08;;;;;;;32.11;23.86;96336.69;5035848;28;21003;-78